createdAt,value
2017-11-06T00:00:17.764Z,42.50
2017-11-06T00:01:16.990Z,41.40
2017-11-06T00:02:16.930Z,43.50
2017-11-06T00:03:17.092Z,43.30
2017-11-06T00:04:16.999Z,44.20
2017-11-06T00:05:18.205Z,46.20
2017-11-06T00:06:18.168Z,43.30
2017-11-06T00:07:17.007Z,40.30
2017-11-06T00:08:17.385Z,45.10
2017-11-06T00:09:16.359Z,48.60
2017-11-06T00:10:16.162Z,51.30
2017-11-06T00:11:17.445Z,49.90
2017-11-06T00:12:16.371Z,53.70
2017-11-06T00:13:16.640Z,50.20
2017-11-06T00:14:17.073Z,56.10
2017-11-06T00:15:16.446Z,58.20
2017-11-06T00:16:16.325Z,59.00
2017-11-06T00:17:17.862Z,56.40
2017-11-06T00:18:17.175Z,56.80
2017-11-06T00:19:17.871Z,58.90
2017-11-06T00:20:16.874Z,57.60
2017-11-06T00:21:19.789Z,54.50
2017-11-06T00:22:17.268Z,57.40
2017-11-06T00:23:16.629Z,56.20
2017-11-06T00:24:17.529Z,55.40
2017-11-06T00:25:16.864Z,50.60
2017-11-06T00:26:18.068Z,45.50
2017-11-06T00:27:16.882Z,53.00
2017-11-06T00:28:17.506Z,52.00
2017-11-06T00:29:16.397Z,51.00
2017-11-06T00:30:16.650Z,54.60
2017-11-06T00:31:16.772Z,52.40
2017-11-06T00:32:16.349Z,50.60
2017-11-06T00:33:16.162Z,48.70
2017-11-06T00:34:17.792Z,59.10
2017-11-06T00:35:16.708Z,50.00
2017-11-06T00:36:17.099Z,51.70
2017-11-06T00:37:16.805Z,56.60
2017-11-06T00:38:17.068Z,53.50
2017-11-06T00:39:17.668Z,49.20
2017-11-06T00:40:17.291Z,47.10
2017-11-06T00:41:16.051Z,54.00
2017-11-06T00:42:17.267Z,55.50
2017-11-06T00:43:17.061Z,56.30
2017-11-06T00:44:17.048Z,57.00
2017-11-06T00:45:17.335Z,57.50
2017-11-06T00:46:16.063Z,50.60
2017-11-06T00:47:17.107Z,51.50
2017-11-06T00:48:16.856Z,61.30
2017-11-06T00:49:16.625Z,57.50
2017-11-06T00:50:16.889Z,49.50
2017-11-06T00:51:17.597Z,54.90
2017-11-06T00:52:16.500Z,59.10
2017-11-06T00:53:16.292Z,52.10
2017-11-06T00:54:15.986Z,49.60
2017-11-06T00:55:17.305Z,58.40
2017-11-06T00:56:16.477Z,62.00
2017-11-06T00:57:17.361Z,61.20
2017-11-06T00:58:16.772Z,56.20
2017-11-06T00:59:17.027Z,63.00
2017-11-06T01:00:16.732Z,57.50
2017-11-06T01:01:16.612Z,58.90
2017-11-06T01:02:16.840Z,58.30
2017-11-06T01:03:17.039Z,59.20
2017-11-06T01:04:16.892Z,57.00
2017-11-06T01:05:16.589Z,56.00
2017-11-06T01:06:16.152Z,49.80
2017-11-06T01:07:16.245Z,52.10
2017-11-06T01:08:16.958Z,45.30
2017-11-06T01:09:17.528Z,46.40
2017-11-06T01:10:16.760Z,48.80
2017-11-06T01:11:16.831Z,44.90
2017-11-06T01:12:16.636Z,49.60
2017-11-06T01:13:16.445Z,64.90
2017-11-06T01:14:16.260Z,79.90
2017-11-06T01:15:17.230Z,80.20
2017-11-06T01:16:16.635Z,78.50
2017-11-06T01:17:16.433Z,73.80
2017-11-06T01:18:17.200Z,72.40
2017-11-06T01:19:16.363Z,72.20
2017-11-06T01:20:16.155Z,78.40
2017-11-06T01:21:16.848Z,83.20
2017-11-06T01:22:16.852Z,81.40
2017-11-06T01:23:16.951Z,82.80
2017-11-06T01:24:17.134Z,90.10
2017-11-06T01:25:16.122Z,86.00
2017-11-06T01:26:17.335Z,77.30
2017-11-06T01:27:17.067Z,69.10
2017-11-06T01:28:17.206Z,69.50
2017-11-06T01:29:16.879Z,69.20
2017-11-06T01:30:17.111Z,67.50
2017-11-06T01:31:17.393Z,62.10
2017-11-06T01:32:16.949Z,66.40
2017-11-06T01:33:16.714Z,66.80
2017-11-06T01:34:16.432Z,81.50
2017-11-06T01:35:16.612Z,72.60
2017-11-06T01:36:16.628Z,86.20
2017-11-06T01:37:16.719Z,83.70
2017-11-06T01:38:16.428Z,85.10
2017-11-06T01:39:16.906Z,88.50
2017-11-06T01:40:17.006Z,90.70
2017-11-06T01:41:17.375Z,91.80
2017-11-06T01:42:16.575Z,86.40
2017-11-06T01:43:17.812Z,95.90
2017-11-06T01:44:16.958Z,94.00
2017-11-06T01:45:16.955Z,80.20
2017-11-06T01:46:16.617Z,84.90
2017-11-06T01:47:16.704Z,86.80
2017-11-06T01:48:16.915Z,79.60
2017-11-06T01:49:17.328Z,77.60
2017-11-06T01:50:16.008Z,81.10
2017-11-06T01:51:16.796Z,85.20
2017-11-06T01:52:16.567Z,88.00
2017-11-06T01:53:17.224Z,88.50
2017-11-06T01:54:15.964Z,102.20
2017-11-06T01:55:17.557Z,94.70
2017-11-06T01:56:16.256Z,84.70
2017-11-06T01:57:17.255Z,91.40
2017-11-06T01:58:17.157Z,107.10
2017-11-06T01:59:16.924Z,100.60
2017-11-06T02:00:17.434Z,97.70
2017-11-06T02:01:16.733Z,108.50
2017-11-06T02:02:16.463Z,131.00
2017-11-06T02:03:16.585Z,115.50
2017-11-06T02:04:16.548Z,110.10
2017-11-06T02:05:16.301Z,110.50
2017-11-06T02:06:16.455Z,133.10
2017-11-06T02:07:16.835Z,123.30
2017-11-06T02:08:16.761Z,109.50
2017-11-06T02:09:16.556Z,123.00
2017-11-06T02:10:16.711Z,131.70
2017-11-06T02:11:17.340Z,136.00
2017-11-06T02:12:16.674Z,125.50
2017-11-06T02:13:16.938Z,134.30
2017-11-06T02:14:16.909Z,121.60
2017-11-06T02:15:16.655Z,123.30
2017-11-06T02:16:16.416Z,134.40
2017-11-06T02:17:16.909Z,128.70
2017-11-06T02:18:16.967Z,114.20
2017-11-06T02:19:16.724Z,129.80
2017-11-06T02:20:16.837Z,128.40
2017-11-06T02:21:16.090Z,132.30
2017-11-06T02:22:17.329Z,119.70
2017-11-06T02:23:16.238Z,127.50
2017-11-06T02:24:16.965Z,117.30
2017-11-06T02:25:17.139Z,120.40
2017-11-06T02:26:16.985Z,119.70
2017-11-06T02:27:17.137Z,132.50
2017-11-06T02:28:16.837Z,121.00
2017-11-06T02:29:17.071Z,120.90
2017-11-06T02:30:16.829Z,116.20
2017-11-06T02:31:16.378Z,119.60
2017-11-06T02:32:16.462Z,122.10
2017-11-06T02:33:16.501Z,122.80
2017-11-06T02:34:16.678Z,120.30
2017-11-06T02:35:16.426Z,137.10
2017-11-06T02:36:16.235Z,143.40
2017-11-06T02:37:16.946Z,127.60
2017-11-06T02:38:16.934Z,132.50
2017-11-06T02:39:17.632Z,121.30
2017-11-06T02:40:17.369Z,127.40
2017-11-06T02:41:16.811Z,117.30
2017-11-06T02:42:16.557Z,148.40
2017-11-06T02:43:17.932Z,145.90
2017-11-06T02:44:17.149Z,136.60
2017-11-06T02:45:16.635Z,169.40
2017-11-06T02:46:16.371Z,152.00
2017-11-06T02:47:16.460Z,151.40
2017-11-06T02:48:16.087Z,148.00
2017-11-06T02:49:17.508Z,148.10
2017-11-06T02:50:17.116Z,159.90
2017-11-06T02:51:18.528Z,172.20
2017-11-06T02:52:16.722Z,166.90
2017-11-06T02:53:16.426Z,166.00
2017-11-06T02:54:16.121Z,165.10
2017-11-06T02:55:17.845Z,152.80
2017-11-06T02:56:17.689Z,172.00
2017-11-06T02:57:16.449Z,165.90
2017-11-06T02:58:16.133Z,171.50
2017-11-06T02:59:16.904Z,149.50
2017-11-06T03:00:17.632Z,143.00
2017-11-06T03:01:16.298Z,152.70
2017-11-06T03:02:16.434Z,139.60
2017-11-06T03:03:16.210Z,155.40
2017-11-06T03:04:17.392Z,145.00
2017-11-06T03:05:16.132Z,141.70
2017-11-06T03:06:17.227Z,145.50
2017-11-06T03:07:16.946Z,129.00
2017-11-06T03:08:16.895Z,148.10
2017-11-06T03:09:16.624Z,120.30
2017-11-06T03:10:16.878Z,118.10
2017-11-06T03:11:17.687Z,135.50
2017-11-06T03:12:16.662Z,123.60
2017-11-06T03:13:16.349Z,139.20
2017-11-06T03:14:16.419Z,128.90
2017-11-06T03:15:16.138Z,134.40
2017-11-06T03:16:17.717Z,127.50
2017-11-06T03:17:16.725Z,135.00
2017-11-06T03:18:16.787Z,135.80
2017-11-06T03:19:16.664Z,142.20
2017-11-06T03:20:16.341Z,143.30
2017-11-06T03:21:17.542Z,143.40
2017-11-06T03:22:16.259Z,138.80
2017-11-06T03:23:15.985Z,138.30
2017-11-06T03:24:17.141Z,131.20
2017-11-06T03:25:16.709Z,130.50
2017-11-06T03:26:16.483Z,124.90
2017-11-06T03:27:17.242Z,112.40
2017-11-06T03:28:16.949Z,102.10
2017-11-06T03:29:16.763Z,118.90
2017-11-06T03:30:16.826Z,123.40
2017-11-06T03:31:16.507Z,123.10
2017-11-06T03:32:17.681Z,120.20
2017-11-06T03:33:16.815Z,118.40
2017-11-06T03:34:17.107Z,119.30
2017-11-06T03:35:16.903Z,137.50
2017-11-06T03:36:16.874Z,122.40
2017-11-06T03:37:17.374Z,119.10
2017-11-06T03:38:15.977Z,109.90
2017-11-06T03:39:16.714Z,113.10
2017-11-06T03:40:16.484Z,137.50
2017-11-06T03:41:16.648Z,115.00
2017-11-06T03:42:16.527Z,133.60
2017-11-06T03:43:17.327Z,126.00
2017-11-06T03:44:16.509Z,125.60
2017-11-06T03:45:17.156Z,139.00
2017-11-06T03:46:16.840Z,140.00
2017-11-06T03:47:16.578Z,136.60
2017-11-06T03:48:16.340Z,150.00
2017-11-06T03:49:16.711Z,160.40
2017-11-06T03:50:16.824Z,159.90
2017-11-06T03:51:16.559Z,160.20
2017-11-06T03:52:16.409Z,163.80
2017-11-06T03:53:16.856Z,128.40
2017-11-06T03:54:17.121Z,147.10
2017-11-06T03:55:17.262Z,153.00
2017-11-06T03:56:16.616Z,149.10
2017-11-06T03:57:16.736Z,134.00
2017-11-06T03:58:17.167Z,135.40
2017-11-06T03:59:17.346Z,130.00
2017-11-06T04:00:16.748Z,154.50
2017-11-06T04:01:16.954Z,147.40
2017-11-06T04:02:17.066Z,161.40
2017-11-06T04:03:17.195Z,151.20
2017-11-06T04:04:17.762Z,157.50
2017-11-06T04:05:16.494Z,239.20
2017-11-06T04:06:16.582Z,173.90
2017-11-06T04:07:16.341Z,181.80
2017-11-06T04:08:16.261Z,181.90
2017-11-06T04:09:17.330Z,167.50
2017-11-06T04:10:16.025Z,164.00
2017-11-06T04:11:16.749Z,172.00
2017-11-06T04:12:16.682Z,173.50
2017-11-06T04:13:16.819Z,168.50
2017-11-06T04:14:17.030Z,168.30
2017-11-06T04:15:16.718Z,173.60
2017-11-06T04:16:16.555Z,167.40
2017-11-06T04:17:16.635Z,172.40
2017-11-06T04:18:16.403Z,175.80
2017-11-06T04:19:17.607Z,174.90
2017-11-06T04:20:16.398Z,175.10
2017-11-06T04:21:16.354Z,170.90
2017-11-06T04:22:16.383Z,156.60
2017-11-06T04:23:17.482Z,155.50
2017-11-06T04:24:16.323Z,177.50
2017-11-06T04:25:16.645Z,151.20
2017-11-06T04:26:38.492Z,149.20
2017-11-06T04:28:22.049Z,175.80
2017-11-06T04:29:18.878Z,176.70
2017-11-06T04:30:17.228Z,168.70
2017-11-06T04:31:17.505Z,163.90
2017-11-06T04:32:16.260Z,155.10
2017-11-06T04:33:16.426Z,141.40
2017-11-06T04:34:22.909Z,152.10
2017-11-06T04:35:20.127Z,153.00
2017-11-06T04:36:18.964Z,165.40
2017-11-06T04:37:18.353Z,167.20
2017-11-06T04:38:19.292Z,173.90
2017-11-06T04:39:17.647Z,167.40
2017-11-06T04:40:24.445Z,161.80
2017-11-06T04:41:18.063Z,167.30
2017-11-06T04:42:26.257Z,172.00
2017-11-06T04:43:26.038Z,175.30
2017-11-06T04:44:22.649Z,169.00
2017-11-06T04:45:22.169Z,175.80
2017-11-06T04:46:22.818Z,172.80
2017-11-06T04:47:24.204Z,160.90
2017-11-06T04:48:19.581Z,162.10
2017-11-06T04:49:21.681Z,169.40
2017-11-06T04:50:18.660Z,166.50
2017-11-06T04:51:29.611Z,163.00
2017-11-06T04:52:22.707Z,176.30
2017-11-06T04:53:18.179Z,175.90
2017-11-06T04:54:19.271Z,176.20
2017-11-06T04:55:20.043Z,159.10
2017-11-06T04:56:18.326Z,164.50
2017-11-06T04:57:19.084Z,166.20
2017-11-06T04:58:18.727Z,155.10
2017-11-06T04:59:17.495Z,151.80
2017-11-06T05:00:18.722Z,169.50
2017-11-06T05:01:19.113Z,157.00
2017-11-06T05:02:18.870Z,165.50
2017-11-06T05:03:18.154Z,172.20
2017-11-06T05:04:17.544Z,165.20
2017-11-06T05:05:16.940Z,155.40
2017-11-06T05:06:17.077Z,154.50
2017-11-06T05:07:17.229Z,158.20
2017-11-06T05:08:17.806Z,166.70
2017-11-06T05:09:17.030Z,164.70
2017-11-06T05:10:16.888Z,149.20
2017-11-06T05:11:16.419Z,182.70
2017-11-06T05:12:16.211Z,192.60
2017-11-06T05:13:17.753Z,176.20
2017-11-06T05:14:16.437Z,178.30
2017-11-06T05:15:16.502Z,176.10
2017-11-06T05:16:16.799Z,193.20
2017-11-06T05:17:16.747Z,195.80
2017-11-06T05:18:17.042Z,187.20
2017-11-06T05:19:17.820Z,171.60
2017-11-06T05:20:16.857Z,195.00
2017-11-06T05:21:17.217Z,192.90
2017-11-06T05:22:18.153Z,209.60
2017-11-06T05:23:17.580Z,205.90
2017-11-06T05:24:17.353Z,205.90
2017-11-06T05:25:17.812Z,188.40
2017-11-06T05:26:17.025Z,167.20
2017-11-06T05:27:17.296Z,168.10
2017-11-06T05:28:17.037Z,181.10
2017-11-06T05:29:18.641Z,175.30
2017-11-06T05:30:17.390Z,183.40
2017-11-06T05:31:18.207Z,182.80
2017-11-06T05:32:17.209Z,170.20
2017-11-06T05:33:17.741Z,178.20
2017-11-06T05:34:17.517Z,172.70
2017-11-06T05:35:16.872Z,181.90
2017-11-06T05:36:17.055Z,190.40
2017-11-06T05:37:17.456Z,198.40
2017-11-06T05:38:17.060Z,218.40
2017-11-06T05:39:16.926Z,201.50
2017-11-06T05:40:17.695Z,186.10
2017-11-06T05:41:17.968Z,193.00
2017-11-06T05:42:17.616Z,204.70
2017-11-06T05:43:17.064Z,179.20
2017-11-06T05:44:18.213Z,196.80
2017-11-06T05:45:17.647Z,187.20
2017-11-06T05:46:16.295Z,175.70
2017-11-06T05:47:18.504Z,203.00
2017-11-06T05:48:17.215Z,191.20
2017-11-06T05:49:17.676Z,177.20
2017-11-06T05:50:17.500Z,162.80
2017-11-06T05:51:17.191Z,160.10
2017-11-06T05:52:17.793Z,178.30
2017-11-06T05:53:17.932Z,180.80
2017-11-06T05:54:17.081Z,189.90
2017-11-06T05:55:18.906Z,181.60
2017-11-06T05:56:17.566Z,185.30
2017-11-06T05:57:17.317Z,183.10
2017-11-06T05:58:17.062Z,199.50
2017-11-06T05:59:19.002Z,202.20
2017-11-06T06:00:17.460Z,187.10
2017-11-06T06:01:17.124Z,219.60
2017-11-06T06:02:18.162Z,205.50
2017-11-06T06:03:18.573Z,225.60
2017-11-06T06:04:17.258Z,209.60
2017-11-06T06:05:16.872Z,200.20
2017-11-06T06:06:18.166Z,231.20
2017-11-06T06:07:17.292Z,217.30
2017-11-06T06:08:16.999Z,229.20
2017-11-06T06:09:18.632Z,226.60
2017-11-06T06:10:16.959Z,216.10
2017-11-06T06:11:17.586Z,225.80
2017-11-06T06:12:17.232Z,232.80
2017-11-06T06:13:17.934Z,222.60
2017-11-06T06:14:17.083Z,201.40
2017-11-06T06:15:17.087Z,221.20
2017-11-06T06:16:17.453Z,226.30
2017-11-06T06:17:16.695Z,219.70
2017-11-06T06:18:16.613Z,224.30
2017-11-06T06:19:18.091Z,224.10
2017-11-06T06:20:17.613Z,202.50
2017-11-06T06:21:17.172Z,217.40
2017-11-06T06:22:17.330Z,226.20
2017-11-06T06:23:16.613Z,205.10
2017-11-06T06:24:17.461Z,218.70
2017-11-06T06:25:17.098Z,218.00
2017-11-06T06:26:17.339Z,187.20
2017-11-06T06:27:18.116Z,198.00
2017-11-06T06:28:18.331Z,192.80
2017-11-06T06:29:17.572Z,202.20
2017-11-06T06:30:16.932Z,219.70
2017-11-06T06:31:17.029Z,221.90
2017-11-06T06:32:17.099Z,193.80
2017-11-06T06:33:18.556Z,190.90
2017-11-06T06:34:19.567Z,213.60
2017-11-06T06:35:17.278Z,213.70
2017-11-06T06:36:16.809Z,222.30
2017-11-06T06:37:17.297Z,215.50
2017-11-06T06:38:17.344Z,212.40
2017-11-06T06:39:16.497Z,210.30
2017-11-06T06:40:16.599Z,209.40
2017-11-06T06:41:16.901Z,217.70
2017-11-06T06:42:17.494Z,215.30
2017-11-06T06:43:16.587Z,210.40
2017-11-06T06:44:17.118Z,210.90
2017-11-06T06:45:17.257Z,221.20
2017-11-06T06:46:16.909Z,213.80
2017-11-06T06:47:18.544Z,217.30
2017-11-06T06:48:17.023Z,218.10
2017-11-06T06:49:18.188Z,215.80
2017-11-06T06:50:17.442Z,197.40
2017-11-06T06:51:17.501Z,211.60
2017-11-06T06:52:17.816Z,214.20
2017-11-06T06:53:17.893Z,199.20
2017-11-06T06:54:17.363Z,198.70
2017-11-06T06:55:16.854Z,222.20
2017-11-06T06:56:18.203Z,209.50
2017-11-06T06:57:18.088Z,184.00
2017-11-06T06:58:17.541Z,198.10
2017-11-06T06:59:17.104Z,217.60
2017-11-06T07:00:18.141Z,163.10
2017-11-06T07:01:16.737Z,174.60
2017-11-06T07:02:16.444Z,183.20
2017-11-06T07:03:17.117Z,161.80
2017-11-06T07:04:16.800Z,187.50
2017-11-06T07:05:17.115Z,192.30
2017-11-06T07:06:17.365Z,170.00
2017-11-06T07:07:17.542Z,170.90
2017-11-06T07:08:17.062Z,210.10
2017-11-06T07:09:16.848Z,201.80
2017-11-06T07:10:16.680Z,195.40
2017-11-06T07:11:16.655Z,214.30
2017-11-06T07:12:16.768Z,162.40
2017-11-06T07:13:18.064Z,184.60
2017-11-06T07:14:17.249Z,196.00
2017-11-06T07:15:16.872Z,207.80
2017-11-06T07:16:17.453Z,184.90
2017-11-06T07:17:17.169Z,192.60
2017-11-06T07:18:16.149Z,211.00
2017-11-06T07:19:16.475Z,207.90
2017-11-06T07:20:16.474Z,209.50
2017-11-06T07:21:16.633Z,181.10
2017-11-06T07:22:17.264Z,190.60
2017-11-06T07:23:16.836Z,185.10
2017-11-06T07:24:16.914Z,173.90
2017-11-06T07:25:17.396Z,178.70
2017-11-06T07:26:17.627Z,184.40
2017-11-06T07:27:16.795Z,190.80
2017-11-06T07:28:16.715Z,204.70
2017-11-06T07:29:17.183Z,175.00
2017-11-06T07:30:17.312Z,190.60
2017-11-06T07:31:16.363Z,188.70
2017-11-06T07:32:16.851Z,189.30
2017-11-06T07:33:17.432Z,181.40
2017-11-06T07:34:19.187Z,170.00
2017-11-06T07:35:16.187Z,161.00
2017-11-06T07:36:17.567Z,154.90
2017-11-06T07:37:17.858Z,165.70
2017-11-06T07:38:17.914Z,167.50
2017-11-06T07:39:17.508Z,168.20
2017-11-06T07:40:17.527Z,148.20
2017-11-06T07:41:17.826Z,156.60
2017-11-06T07:42:18.355Z,135.60
2017-11-06T07:43:17.565Z,145.50
2017-11-06T07:44:18.340Z,166.60
2017-11-06T07:45:16.396Z,155.30
2017-11-06T07:46:17.322Z,152.70
2017-11-06T07:47:16.835Z,138.40
2017-11-06T07:48:17.438Z,138.50
2017-11-06T07:49:16.530Z,135.30
2017-11-06T07:50:18.563Z,149.80
2017-11-06T07:51:16.835Z,135.60
2017-11-06T07:52:17.703Z,136.00
2017-11-06T07:53:16.715Z,136.90
2017-11-06T07:54:17.042Z,138.90
2017-11-06T07:55:17.414Z,150.10
2017-11-06T07:56:17.165Z,144.40
2017-11-06T07:57:17.538Z,154.60
2017-11-06T07:58:17.643Z,152.40
2017-11-06T07:59:19.181Z,144.50
2017-11-06T08:00:17.642Z,144.40
2017-11-06T08:01:18.808Z,141.40
2017-11-06T08:02:17.186Z,155.40
2017-11-06T08:03:17.145Z,159.40
2017-11-06T08:04:17.094Z,157.60
2017-11-06T08:05:17.201Z,157.90
2017-11-06T08:06:16.746Z,158.40
2017-11-06T08:07:17.323Z,153.60
2017-11-06T08:08:17.089Z,148.40
2017-11-06T08:09:17.047Z,145.60
2017-11-06T08:10:16.612Z,141.80
2017-11-06T08:11:17.785Z,148.50
2017-11-06T08:12:17.152Z,147.30
2017-11-06T08:13:17.606Z,146.30
2017-11-06T08:14:16.888Z,123.70
2017-11-06T08:15:16.805Z,133.10
2017-11-06T08:16:17.635Z,135.30
2017-11-06T08:17:17.159Z,142.90
2017-11-06T08:18:17.643Z,138.00
2017-11-06T08:19:16.543Z,129.80
2017-11-06T08:20:16.860Z,136.50
2017-11-06T08:21:17.124Z,141.20
2017-11-06T08:22:16.669Z,133.10
2017-11-06T08:23:16.714Z,132.10
2017-11-06T08:24:16.770Z,128.60
2017-11-06T08:25:16.777Z,112.80
2017-11-06T08:26:16.724Z,118.50
2017-11-06T08:27:17.479Z,116.00
2017-11-06T08:28:16.342Z,117.00
2017-11-06T08:29:16.774Z,126.70
2017-11-06T08:30:16.635Z,99.50
2017-11-06T08:31:16.497Z,104.90
2017-11-06T08:32:17.506Z,89.80
2017-11-06T08:33:17.279Z,80.90
2017-11-06T08:34:17.264Z,74.70
2017-11-06T08:35:16.759Z,69.90
2017-11-06T08:36:16.724Z,67.20
2017-11-06T08:37:16.869Z,64.40
2017-11-06T08:38:17.341Z,49.10
2017-11-06T08:39:16.772Z,55.30
2017-11-06T08:40:16.914Z,47.90
2017-11-06T08:41:16.783Z,55.30
2017-11-06T08:42:17.023Z,56.00
2017-11-06T08:43:17.459Z,53.90
2017-11-06T08:44:16.948Z,57.50
2017-11-06T08:45:17.131Z,48.90
2017-11-06T08:46:17.000Z,55.60
2017-11-06T08:47:17.017Z,55.10
2017-11-06T08:48:17.879Z,46.40
2017-11-06T08:49:16.751Z,40.40
2017-11-06T08:50:16.610Z,40.30
2017-11-06T08:51:16.742Z,41.30
2017-11-06T08:52:17.139Z,31.20
2017-11-06T08:53:17.224Z,34.60
2017-11-06T08:54:17.429Z,32.80
2017-11-06T08:55:16.943Z,38.20
2017-11-06T08:56:16.845Z,32.60
2017-11-06T08:57:16.878Z,28.30
2017-11-06T08:58:17.230Z,28.50
2017-11-06T08:59:16.278Z,31.60
2017-11-06T09:00:16.820Z,24.20
2017-11-06T09:01:17.234Z,29.60
2017-11-06T09:02:16.251Z,25.60
2017-11-06T09:03:16.735Z,24.90
2017-11-06T09:04:17.242Z,27.80
2017-11-06T09:05:16.999Z,26.00
2017-11-06T09:06:16.798Z,29.20
2017-11-06T09:07:16.677Z,23.20
2017-11-06T09:08:17.317Z,22.60
2017-11-06T09:09:16.833Z,23.40
2017-11-06T09:10:17.172Z,26.60
2017-11-06T09:11:17.384Z,22.20
2017-11-06T09:12:16.537Z,21.70
2017-11-06T09:13:16.608Z,17.80
2017-11-06T09:14:16.756Z,22.60
2017-11-06T09:15:16.843Z,16.50
2017-11-06T09:16:17.323Z,23.20
2017-11-06T09:17:17.209Z,17.60
2017-11-06T09:18:17.348Z,15.40
2017-11-06T09:19:16.468Z,13.40
2017-11-06T09:20:16.767Z,20.40
2017-11-06T09:21:17.263Z,15.00
2017-11-06T09:22:17.795Z,15.10
2017-11-06T09:23:17.099Z,12.00
2017-11-06T09:24:18.447Z,11.20
2017-11-06T09:25:17.272Z,12.20
2017-11-06T09:26:17.065Z,17.20
2017-11-06T09:27:18.043Z,12.90
2017-11-06T09:28:17.678Z,13.50
2017-11-06T09:29:16.633Z,14.70
2017-11-06T09:30:16.474Z,13.20
2017-11-06T09:31:16.787Z,11.10
2017-11-06T09:32:16.801Z,10.40
2017-11-06T09:33:17.755Z,15.70
2017-11-06T09:34:17.110Z,13.80
2017-11-06T09:35:29.409Z,9.90
2017-11-06T09:36:17.265Z,11.10
2017-11-06T09:37:17.001Z,12.90
2017-11-06T09:38:17.763Z,10.10
2017-11-06T09:39:16.772Z,10.60
2017-11-06T09:40:16.785Z,9.50
2017-11-06T09:41:17.108Z,12.10
2017-11-06T09:42:17.890Z,10.50
2017-11-06T09:43:17.939Z,7.50
2017-11-06T09:44:17.380Z,9.10
2017-11-06T09:45:19.275Z,9.50
2017-11-06T09:46:17.029Z,10.60
2017-11-06T09:47:17.065Z,10.60
2017-11-06T09:48:16.279Z,10.20
2017-11-06T09:49:16.561Z,7.30
2017-11-06T09:50:17.666Z,11.30
2017-11-06T09:51:17.091Z,12.80
2017-11-06T09:52:17.235Z,7.40
2017-11-06T09:53:17.268Z,11.00
2017-11-06T09:54:17.118Z,9.80
2017-11-06T09:55:16.585Z,10.80
2017-11-06T09:56:16.954Z,10.60
2017-11-06T09:57:16.880Z,8.20
2017-11-06T09:58:18.430Z,13.10
2017-11-06T09:59:16.635Z,13.30
2017-11-06T10:00:18.052Z,13.30
2017-11-06T10:01:16.932Z,11.40
2017-11-06T10:02:17.051Z,9.60
2017-11-06T10:03:17.414Z,10.40
2017-11-06T10:04:45.869Z,0.00
2017-11-06T10:05:46.660Z,10.70
2017-11-06T10:06:46.152Z,8.60
2017-11-06T10:07:46.313Z,8.10
2017-11-06T10:08:46.774Z,15.20
2017-11-06T10:09:46.288Z,7.90
2017-11-06T10:10:47.217Z,13.00
2017-11-06T10:11:46.437Z,9.00
2017-11-06T10:12:46.428Z,9.20
2017-11-06T10:13:46.039Z,10.90
2017-11-06T10:14:46.587Z,11.40
2017-11-06T10:15:45.777Z,13.60
2017-11-06T10:16:46.684Z,7.70
2017-11-06T10:17:45.702Z,6.30
2017-11-06T10:18:46.262Z,6.60
2017-11-06T10:19:46.324Z,12.20
2017-11-06T10:20:46.454Z,8.60
2017-11-06T10:21:45.890Z,8.40
2017-11-06T10:22:46.493Z,8.60
2017-11-06T10:23:47.095Z,12.70
2017-11-06T10:24:46.616Z,10.80
2017-11-06T10:25:46.774Z,9.70
2017-11-06T10:26:46.372Z,12.70
2017-11-06T10:27:47.642Z,9.40
2017-11-06T10:28:46.974Z,8.60
2017-11-06T10:29:48.303Z,10.80
2017-11-06T10:30:46.017Z,7.30
2017-11-06T10:31:46.122Z,7.30
2017-11-06T10:32:47.169Z,11.30
2017-11-06T10:33:46.671Z,10.00
2017-11-06T10:34:47.037Z,8.10
2017-11-06T10:35:46.825Z,8.90
2017-11-06T10:36:45.834Z,12.30
2017-11-06T10:37:45.515Z,7.70
2017-11-06T10:38:45.993Z,6.40
2017-11-06T10:39:46.535Z,10.30
2017-11-06T10:40:47.410Z,10.10
2017-11-06T10:41:46.318Z,9.70
2017-11-06T10:42:46.025Z,10.00
2017-11-06T10:43:47.011Z,8.70
2017-11-06T10:44:51.589Z,8.40
2017-11-06T10:45:45.735Z,9.40
2017-11-06T10:46:46.092Z,6.70
2017-11-06T10:47:46.185Z,5.90
2017-11-06T10:48:46.967Z,5.90
2017-11-06T10:49:46.225Z,7.70
2017-11-06T10:50:46.856Z,10.70
2017-11-06T10:51:46.505Z,7.00
2017-11-06T10:52:46.708Z,6.70
2017-11-06T10:53:46.436Z,9.30
2017-11-06T10:54:45.890Z,7.20
2017-11-06T10:55:45.957Z,7.70
2017-11-06T10:56:46.132Z,8.60
2017-11-06T10:57:46.237Z,10.30
2017-11-06T10:58:46.276Z,8.80
2017-11-06T10:59:46.675Z,8.20
2017-11-06T11:00:46.332Z,7.70
2017-11-06T11:01:45.335Z,8.60
2017-11-06T11:02:46.820Z,9.00
2017-11-06T11:03:45.742Z,6.70
2017-11-06T11:04:46.220Z,10.80
2017-11-06T11:05:46.618Z,11.60
2017-11-06T11:06:45.674Z,7.30
2017-11-06T11:07:45.698Z,7.30
2017-11-06T11:08:46.070Z,6.20
2017-11-06T11:09:45.882Z,9.20
2017-11-06T11:10:46.418Z,9.10
2017-11-06T11:11:45.950Z,8.10
2017-11-06T11:12:45.944Z,8.50
2017-11-06T11:13:45.824Z,13.50
2017-11-06T11:14:47.098Z,6.50
2017-11-06T11:15:46.532Z,8.80
2017-11-06T11:16:46.007Z,6.70
2017-11-06T11:17:46.319Z,4.50
2017-11-06T11:18:46.713Z,9.40
2017-11-06T11:19:46.180Z,7.10
2017-11-06T11:20:45.361Z,8.80
2017-11-06T11:21:46.713Z,7.90
2017-11-06T11:22:45.763Z,7.60
2017-11-06T11:23:46.147Z,13.40
2017-11-06T11:24:46.600Z,5.40
2017-11-06T11:25:46.940Z,6.90
2017-11-06T11:26:46.307Z,8.20
2017-11-06T11:27:46.691Z,12.30
2017-11-06T11:28:45.745Z,7.40
2017-11-06T11:29:46.351Z,11.20
2017-11-06T11:30:45.385Z,10.20
2017-11-06T11:31:46.582Z,9.10
2017-11-06T11:32:45.758Z,9.70
2017-11-06T11:33:46.171Z,12.00
2017-11-06T11:34:46.080Z,6.00
2017-11-06T11:35:46.633Z,8.80
2017-11-06T11:36:46.077Z,5.30
2017-11-06T11:37:46.930Z,9.10
2017-11-06T11:38:46.271Z,5.70
2017-11-06T11:39:46.553Z,12.60
2017-11-06T11:40:46.036Z,15.10
2017-11-06T11:41:45.422Z,9.90
2017-11-06T11:42:45.735Z,10.60
2017-11-06T11:43:46.822Z,7.60
2017-11-06T11:44:45.795Z,6.00
2017-11-06T11:45:45.830Z,8.50
2017-11-06T11:46:45.723Z,8.60
2017-11-06T11:47:45.589Z,10.40
2017-11-06T11:48:45.892Z,10.30
2017-11-06T11:49:46.398Z,14.20
2017-11-06T11:50:45.704Z,7.10
2017-11-06T11:51:46.073Z,10.30
2017-11-06T11:52:46.521Z,10.00
2017-11-06T11:53:45.514Z,6.10
2017-11-06T11:54:45.979Z,7.30
2017-11-06T11:55:46.722Z,13.20
2017-11-06T11:56:45.565Z,14.80
2017-11-06T11:57:45.565Z,6.40
2017-11-06T11:58:45.979Z,7.90
2017-11-06T11:59:46.261Z,8.50
2017-11-06T12:00:47.151Z,8.40
2017-11-06T12:01:46.250Z,11.80
2017-11-06T12:02:45.767Z,9.30
2017-11-06T12:03:46.120Z,8.20
2017-11-06T12:04:46.060Z,7.00
2017-11-06T12:05:47.373Z,9.50
2017-11-06T12:06:45.405Z,7.20
2017-11-06T12:07:45.604Z,9.00
2017-11-06T12:08:45.894Z,6.40
2017-11-06T12:09:46.521Z,10.60
2017-11-06T12:10:46.212Z,9.60
2017-11-06T12:11:46.574Z,11.00
2017-11-06T12:12:45.998Z,8.70
2017-11-06T12:13:46.278Z,9.70
2017-11-06T12:14:45.498Z,10.80
2017-11-06T12:15:45.834Z,9.50
2017-11-06T12:16:46.095Z,9.10
2017-11-06T12:17:46.584Z,9.80
2017-11-06T12:18:46.419Z,11.90
2017-11-06T12:19:45.389Z,10.80
2017-11-06T12:20:45.813Z,12.80
2017-11-06T12:21:46.732Z,21.00
2017-11-06T12:22:45.728Z,16.30
2017-11-06T12:23:45.709Z,17.30
2017-11-06T12:24:45.602Z,12.60
2017-11-06T12:25:46.272Z,10.10
2017-11-06T12:26:46.988Z,6.80
2017-11-06T12:27:46.754Z,10.30
2017-11-06T12:28:45.965Z,7.90
2017-11-06T12:29:46.643Z,9.80
2017-11-06T12:30:45.737Z,10.90
2017-11-06T12:31:46.275Z,9.50
2017-11-06T12:32:47.035Z,9.70
2017-11-06T12:33:46.088Z,11.60
2017-11-06T12:34:46.028Z,9.10
2017-11-06T12:35:46.378Z,10.40
2017-11-06T12:36:45.262Z,7.10
2017-11-06T12:37:46.676Z,10.80
2017-11-06T12:38:46.086Z,14.60
2017-11-06T12:39:46.438Z,12.40
2017-11-06T12:40:46.387Z,10.50
2017-11-06T12:41:45.892Z,11.70
2017-11-06T12:42:47.059Z,9.50
2017-11-06T12:43:46.220Z,8.50
2017-11-06T12:44:46.188Z,7.00